createdAt,value
2022-11-09T00:05:16.038Z,499.00
2022-11-09T00:10:47.809Z,498.00
2022-11-09T00:21:51.856Z,493.00
2022-11-09T00:27:23.440Z,493.00
2022-11-09T00:32:55.241Z,490.00
2022-11-09T00:44:00.634Z,489.00
2022-11-09T00:49:34.998Z,490.00
2022-11-09T00:55:12.628Z,482.00
2022-11-09T01:00:44.172Z,482.00
2022-11-09T01:06:16.058Z,486.00
2022-11-09T01:22:51.260Z,499.00
2022-11-09T01:28:22.971Z,495.00
2022-11-09T01:39:26.579Z,498.00
2022-11-09T01:45:05.287Z,504.00
2022-11-09T01:50:42.836Z,502.00
2022-11-09T01:56:14.624Z,507.00
2022-11-09T02:01:48.125Z,504.00
2022-11-09T02:07:19.829Z,502.00
2022-11-09T02:12:57.251Z,499.00
2022-11-09T02:18:35.348Z,503.00
2022-11-09T02:24:13.225Z,506.00
2022-11-09T02:29:50.955Z,507.00
2022-11-09T02:35:22.785Z,507.00
2022-11-09T02:40:54.563Z,509.00
2022-11-09T02:46:26.436Z,509.00
2022-11-09T02:52:04.112Z,507.00
2022-11-09T02:57:35.674Z,502.00
2022-11-09T03:03:07.442Z,502.00
2022-11-09T03:08:39.238Z,505.00
2022-11-09T03:14:11.072Z,502.00
2022-11-09T03:19:42.848Z,502.00
2022-11-09T03:25:14.617Z,497.00
2022-11-09T03:30:46.816Z,498.00
2022-11-09T03:36:18.845Z,500.00
2022-11-09T03:41:50.532Z,501.00
2022-11-09T03:47:22.618Z,499.00
2022-11-09T03:53:00.368Z,497.00
2022-11-09T03:58:38.242Z,495.00
2022-11-09T04:04:10.333Z,486.00
2022-11-09T04:09:47.894Z,486.00
2022-11-09T04:15:19.824Z,487.00
2022-11-09T04:20:51.815Z,490.00
2022-11-09T04:26:24.024Z,497.00
2022-11-09T04:31:56.063Z,499.00
2022-11-09T04:37:33.821Z,500.00
2022-11-09T04:43:05.572Z,501.00
2022-11-09T04:48:37.457Z,512.00
2022-11-09T04:54:09.263Z,513.00
2022-11-09T04:59:46.951Z,510.00
2022-11-09T05:05:24.576Z,512.00
2022-11-09T05:10:58.417Z,508.00
2022-11-09T05:16:36.363Z,512.00
2022-11-09T05:22:08.299Z,518.00
2022-11-09T05:27:40.111Z,516.00
2022-11-09T05:33:11.624Z,516.00
2022-11-09T05:38:43.416Z,517.00
2022-11-09T05:44:21.142Z,518.00
2022-11-09T05:49:59.014Z,519.00
2022-11-09T05:55:36.719Z,523.00
2022-11-09T06:01:14.116Z,529.00
2022-11-09T06:06:51.627Z,526.00
2022-11-09T06:12:23.772Z,526.00
2022-11-09T06:18:01.101Z,527.00
2022-11-09T06:23:32.842Z,533.00
2022-11-09T06:29:04.344Z,537.00
2022-11-09T06:34:36.047Z,541.00
2022-11-09T06:40:07.679Z,542.00
2022-11-09T06:45:39.513Z,542.00
2022-11-09T06:51:17.185Z,542.00
2022-11-09T06:56:48.907Z,544.00
2022-11-09T07:02:20.786Z,547.00
2022-11-09T07:07:52.662Z,544.00
2022-11-09T07:10:16.232Z,550.00
2022-11-09T07:15:53.564Z,544.00
2022-11-09T07:21:31.561Z,545.00
2022-11-09T07:27:09.086Z,545.00
2022-11-09T07:33:07.354Z,544.00
2022-11-09T07:38:12.555Z,541.00
2022-11-09T07:43:46.567Z,534.00
2022-11-09T07:49:18.334Z,533.00
2022-11-09T07:54:52.333Z,533.00
2022-11-09T08:00:23.756Z,532.00
2022-11-09T08:05:54.130Z,531.00
2022-11-09T08:11:25.570Z,529.00
2022-11-09T08:16:57.926Z,521.00
2022-11-09T08:22:29.798Z,521.00
2022-11-09T08:28:01.398Z,518.00
2022-11-09T08:33:33.239Z,514.00
2022-11-09T08:39:05.554Z,508.00
2022-11-09T08:44:37.418Z,503.00
2022-11-09T08:50:09.332Z,498.00
2022-11-09T08:55:43.792Z,498.00
2022-11-09T09:01:16.892Z,494.00
2022-11-09T09:06:45.344Z,494.00
2022-11-09T09:12:16.886Z,495.00
2022-11-09T09:17:49.360Z,491.00
2022-11-09T09:23:22.005Z,492.00
2022-11-09T09:28:53.852Z,487.00
2022-11-09T09:34:25.705Z,486.00
2022-11-09T09:39:58.038Z,486.00
2022-11-09T09:45:30.050Z,489.00
2022-11-09T09:51:02.211Z,475.00
2022-11-09T09:56:34.148Z,471.00
2022-11-09T10:02:06.492Z,467.00
2022-11-09T10:07:38.723Z,462.00
2022-11-09T10:13:10.715Z,461.00
2022-11-09T10:18:42.994Z,459.00
2022-11-09T10:24:15.152Z,456.00
2022-11-09T10:35:17.363Z,450.00
2022-11-09T10:40:49.782Z,445.00
2022-11-09T10:46:21.800Z,439.00
2022-11-09T10:51:54.124Z,437.00
2022-11-09T10:57:26.541Z,430.00
2022-11-09T11:02:58.666Z,429.00
2022-11-09T11:08:30.957Z,420.00
2022-11-09T11:14:02.913Z,421.00
2022-11-09T11:19:35.256Z,420.00
2022-11-09T11:30:37.037Z,420.00
2022-11-09T11:41:38.706Z,417.00
2022-11-09T11:47:10.614Z,414.00
2022-11-09T11:52:42.949Z,417.00
2022-11-09T11:58:15.093Z,414.00
2022-11-09T12:03:50.575Z,410.00
2022-11-09T12:09:19.636Z,409.00
2022-11-09T12:14:51.761Z,406.00
2022-11-09T12:20:23.625Z,405.00
2022-11-09T12:25:55.822Z,406.00
2022-11-09T12:31:28.410Z,404.00
2022-11-09T12:37:00.409Z,403.00
2022-11-09T12:42:32.834Z,404.00
2022-11-09T12:48:05.151Z,399.00
2022-11-09T12:53:37.484Z,399.00
2022-11-09T12:59:09.598Z,396.00
2022-11-09T13:04:41.460Z,400.00
2022-11-09T13:10:13.550Z,396.00
2022-11-09T13:15:45.220Z,396.00
2022-11-09T13:21:17.400Z,398.00
2022-11-09T13:26:49.718Z,398.00
2022-11-09T13:32:21.923Z,400.00
2022-11-09T13:37:53.626Z,397.00
2022-11-09T13:43:25.764Z,399.00
2022-11-09T13:48:57.893Z,398.00
2022-11-09T13:54:29.756Z,396.00
2022-11-09T14:00:01.752Z,398.00
2022-11-09T14:05:33.615Z,405.00
2022-11-09T14:11:05.737Z,403.00
2022-11-09T14:16:37.713Z,406.00
2022-11-09T14:22:09.972Z,407.00
2022-11-09T14:27:41.889Z,401.00
2022-11-09T14:33:13.859Z,399.00
2022-11-09T14:38:46.014Z,396.00
2022-11-09T14:44:18.321Z,398.00
2022-11-09T14:49:51.091Z,403.00
2022-11-09T14:55:23.473Z,406.00
2022-11-09T15:00:55.744Z,403.00
2022-11-09T15:06:27.600Z,399.00
2022-11-09T15:11:59.406Z,401.00
2022-11-09T15:17:31.405Z,402.00
2022-11-09T15:23:03.415Z,402.00
2022-11-09T15:28:35.402Z,405.00
2022-11-09T15:34:07.208Z,404.00
2022-11-09T15:39:38.736Z,409.00
2022-11-09T15:45:10.892Z,413.00
2022-11-09T15:50:42.909Z,417.00
2022-11-09T15:56:15.256Z,420.00
2022-11-09T16:01:47.094Z,413.00
2022-11-09T16:07:19.227Z,414.00
2022-11-09T16:12:51.444Z,418.00
2022-11-09T16:18:26.107Z,423.00
2022-11-09T16:23:58.661Z,426.00
2022-11-09T16:40:27.851Z,434.00
2022-11-09T16:46:00.037Z,443.00
2022-11-09T16:51:32.241Z,441.00
2022-11-09T16:57:04.407Z,440.00
2022-11-09T17:02:36.608Z,444.00
2022-11-09T17:08:08.788Z,451.00
2022-11-09T17:13:40.697Z,447.00
2022-11-09T17:19:12.774Z,453.00
2022-11-09T17:24:45.171Z,454.00
2022-11-09T17:30:18.042Z,457.00
2022-11-09T17:35:50.176Z,462.00
2022-11-09T17:41:22.214Z,462.00
2022-11-09T17:46:54.327Z,462.00
2022-11-09T17:52:26.705Z,463.00
2022-11-09T17:57:58.938Z,461.00
2022-11-09T18:03:31.338Z,451.00
2022-11-09T18:09:39.153Z,449.00
2022-11-09T18:14:35.274Z,442.00
2022-11-09T18:20:06.749Z,442.00
2022-11-09T18:25:38.732Z,436.00
2022-11-09T18:31:10.582Z,432.00
2022-11-09T18:36:42.337Z,430.00
2022-11-09T18:42:14.229Z,426.00
2022-11-09T18:47:46.385Z,423.00
2022-11-09T18:53:18.448Z,426.00
2022-11-09T18:58:50.439Z,425.00
2022-11-09T19:04:22.249Z,424.00
2022-11-09T19:09:56.675Z,427.00
2022-11-09T19:20:55.880Z,420.00
2022-11-09T19:26:28.218Z,422.00
2022-11-09T19:32:00.678Z,423.00
2022-11-09T19:37:32.931Z,421.00
2022-11-09T19:43:04.953Z,417.00
2022-11-09T19:48:36.757Z,411.00
2022-11-09T19:54:09.236Z,409.00
2022-11-09T19:59:41.349Z,415.00
2022-11-09T20:05:13.997Z,414.00
2022-11-09T20:10:45.819Z,414.00
2022-11-09T20:16:17.825Z,412.00
2022-11-09T20:21:51.352Z,412.00
2022-11-09T20:24:02.936Z,0.00
2022-11-09T20:29:34.768Z,410.00
2022-11-09T20:35:06.376Z,412.00
2022-11-09T20:40:38.534Z,412.00
2022-11-09T20:46:10.545Z,409.00
2022-11-09T20:51:42.732Z,407.00
2022-11-09T20:57:15.334Z,405.00
2022-11-09T21:02:46.815Z,411.00
2022-11-09T21:08:19.023Z,410.00
2022-11-09T21:13:50.693Z,405.00
2022-11-09T21:19:22.517Z,404.00
2022-11-09T21:24:54.212Z,407.00
2022-11-09T21:30:26.087Z,411.00
2022-11-09T21:35:58.295Z,409.00
2022-11-09T21:41:29.896Z,410.00
2022-11-09T21:47:01.954Z,408.00
2022-11-09T21:52:33.777Z,407.00
2022-11-09T21:58:05.799Z,408.00
2022-11-09T22:03:37.787Z,407.00
2022-11-09T22:09:09.285Z,408.00
2022-11-09T22:14:41.192Z,411.00
2022-11-09T22:20:12.764Z,408.00
2022-11-09T22:25:47.947Z,406.00
2022-11-09T22:31:16.507Z,400.00
2022-11-09T22:36:48.115Z,396.00
2022-11-09T22:42:20.371Z,391.00
2022-11-09T22:47:52.418Z,391.00
2022-11-09T22:53:24.366Z,396.00
2022-11-09T22:58:56.668Z,389.00
2022-11-09T23:04:28.884Z,387.00
2022-11-09T23:10:00.724Z,388.00
2022-11-09T23:15:33.400Z,386.00
2022-11-09T23:21:05.437Z,382.00
2022-11-09T23:26:37.155Z,385.00
2022-11-09T23:32:08.831Z,389.00
2022-11-09T23:37:40.521Z,388.00
2022-11-09T23:43:12.411Z,387.00
2022-11-09T23:48:44.057Z,389.00
2022-11-09T23:54:15.845Z,389.00
2022-11-09T23:59:47.548Z,391.00
